COOK1: Arkansas River Nr Coolidge, KS

                                SHEF ID:       COOK1     ARKANSAS R NR COOLIDGE, KS
STATION TYPE:
Regulating: Stage = 8.00, Flow = 2041

PRECIP STAGE STAGE(2) RIV-FLOW WTR-TEMP CONDUCT BAT-LOAD
in ft ft cfs F umho/cm volt
Ccp-Rev Ccp-Rev Ccp-Rev Ccp-Rev Ccp-Rev Ccp-Rev Ccp-Rev
(America/Chicago)
04/28 00:00 0.00 1.86 ---- 19 57.92 6574 12.50
04/28 01:00 0.00 1.85 ---- 19 56.77 6566 12.46
04/28 02:00 0.00 1.85 ---- 19 55.31 6588 12.42
04/28 03:00 0.00 1.84 ---- 18 53.83 6647 12.40
04/28 04:00 0.00 1.84 ---- 18 52.93 6743 12.35
04/28 05:00 0.00 1.82 ---- 17 52.29 6786 12.32
04/28 06:00 0.00 1.81 ---- 17 51.60 6878 12.29
04/28 07:00 0.00 1.80 ---- 17 50.95 6964 12.27
04/28 08:00 0.00 1.79 ---- 16 50.61 7015 12.25
04/28 09:00 0.00 1.79 ---- 16 50.40 7058 12.27
04/28 10:00 0.00 1.78 ---- 16 50.65 7124 12.40
04/28 11:00 0.00 1.78 ---- 16 51.69 7211 12.85
04/28 12:00 0.00 1.78 ---- 16 54.79 7263 13.28
04/28 13:00 0.00 1.78 ---- 16 59.40 7297 13.91
04/28 14:00 0.00 1.78 ---- 16 65.50 7322 14.16
04/28 15:00 0.00 1.79 ---- 16 70.21 7335 14.32
04/28 16:00 0.00 1.79 ---- 16 72.81 7340 14.31
04/28 17:00 0.00 1.79 ---- 16 73.98 7340 14.14
04/28 18:00 0.00 1.79 ---- 16 72.75 7344 13.95
04/28 19:00 0.00 1.78 ---- 16 70.03 7358 13.74
04/28 20:00 0.00 1.79 ---- 16 65.97 7358 13.33
04/28 21:00 0.00 1.79 ---- 16 62.49 7337 12.69
04/28 22:00 0.00 1.79 ---- 16 59.59 7324 12.60
04/28 23:00 0.00 1.79 ---- 16 57.36 7295 12.53
Data processed at Wed 29Apr2026 04:30 GMT

NOTICE: If you are parsing this page

Please convert to using our Data API. Starting early 2026 we will be migrating to: https://water.usace.army.mil with modern pages rendered in JavaScript. When this migration completes you will no longer be able to scrape this page! CWMSDataAPI (CDA)

Timeseries IDs (TSIDs)

TSIDs used from left to right in the data table
COOL.Precip-Inc.Total.1Hour.1Hour.Ccp-Rev
COOL.Stage.Inst.1Hour.0.Ccp-Rev
COOL.Stage-Alt.Inst.1Hour.0.Ccp-Rev
COOL.Flow.Inst.1Hour.0.Ccp-Rev
COOL.Temp-Water.Inst.1Hour.0.Ccp-Rev
COOL.Cond.Inst.1Hour.0.Ccp-Rev
COOL.Volt-Battery Load.Inst.1Hour.0.Ccp-Rev

                            

All information presented herein is the property of the government of the United States of America and may be revised or deleted at any time without prior notice. Dissemination of this information without the expressed written consent of the Public Affairs Office, Tulsa District U.S. Army Corps of Engineers is strictly prohibited. These data are gathered electronically and, as presented, have NOT undergone any form of quality control. These data are NOT guaranteed to be valid or correct.